Time;durP1;ratioP1;P1;durP2;ratioP2;P2;SDS_P1;SDS_P2;PMS_P1;PMS_P2;Temp;Humidity;BMP_temperature;BMP_pressure;BME280_temperature;BME280_humidity;BME280_pressure;Samples;Min_cycle;Max_cycle;Signal;HPM_P1;HPM_P2
2022/03/05 00:02:03;;;;;;;1.33;0.30;;;1.40;99.90;;;;;;5025701;28;20211;-84
2022/03/05 00:04:29;;;;;;;0.43;0.43;;;1.40;99.90;;;;;;5024712;28;20194;-85
2022/03/05 00:06:54;;;;;;;3.70;1.80;;;1.40;99.90;;;;;;5026804;28;20232;-84
2022/03/05 00:09:20;;;;;;;0.63;0.50;;;1.40;99.90;;;;;;5028593;28;20215;-84
2022/03/05 00:11:45;;;;;;;0.17;0.17;;;1.40;99.90;;;;;;5029653;28;20545;-84
2022/03/05 00:14:12;;;;;;;1.13;1.07;;;1.30;99.90;;;;;;5024888;28;20190;-84
2022/03/05 00:16:42;;;;;;;1.07;1.07;;;1.30;99.90;;;;;;5024477;28;20177;-84
2022/03/05 00:19:07;;;;;;;0.30;0.30;;;1.20;99.90;;;;;;5028022;28;20245;-84
2022/03/05 00:21:33;;;;;;;0.80;0.80;;;1.20;99.90;;;;;;5028495;28;20232;-84
2022/03/05 00:23:59;;;;;;;0.90;0.53;;;1.10;99.90;;;;;;5027681;28;20184;-85
2022/03/05 00:26:25;;;;;;;1.20;1.10;;;1.10;99.90;;;;;;5028742;28;20600;-84
2022/03/05 00:28:51;;;;;;;2.70;1.07;;;1.10;99.90;;;;;;5026440;28;20335;-84
2022/03/05 00:31:17;;;;;;;0.83;0.63;;;1.10;99.90;;;;;;5029566;28;20284;-84
2022/03/05 00:33:42;;;;;;;0.87;0.87;;;1.10;99.90;;;;;;5026417;28;20232;-84
2022/03/05 00:36:08;;;;;;;0.93;0.90;;;1.10;99.90;;;;;;5026556;28;20563;-85
2022/03/05 00:38:34;;;;;;;0.97;0.97;;;1.10;99.90;;;;;;5028760;28;20220;-84
2022/03/05 00:40:59;;;;;;;0.30;0.30;;;1.10;99.90;;;;;;5028419;28;20287;-84
2022/03/05 00:43:26;;;;;;;4.20;1.53;;;1.10;99.90;;;;;;5021731;28;20184;-84
2022/03/05 00:45:53;;;;;;;3.67;1.17;;;1.00;99.90;;;;;;5026291;28;20182;-86
2022/03/05 00:48:19;;;;;;;0.50;0.50;;;1.10;99.90;;;;;;5028328;28;20187;-84
2022/03/05 00:50:45;;;;;;;0.30;0.30;;;1.10;99.90;;;;;;5028699;28;20670;-86
2022/03/05 00:53:12;;;;;;;1.13;1.10;;;1.10;99.90;;;;;;5029293;28;20192;-84
2022/03/05 00:55:38;;;;;;;0.50;0.50;;;1.10;99.90;;;;;;5026214;28;20592;-85
2022/03/05 00:58:04;;;;;;;1.07;0.67;;;1.20;99.90;;;;;;5022693;28;20188;-84
2022/03/05 01:00:29;;;;;;;1.20;1.10;;;1.20;99.90;;;;;;5023351;28;20207;-84
2022/03/05 01:02:55;;;;;;;0.20;0.20;;;1.20;99.90;;;;;;5027715;28;20193;-84
2022/03/05 01:05:21;;;;;;;0.40;0.40;;;1.10;99.90;;;;;;5026061;28;20194;-85
2022/03/05 01:07:46;;;;;;;0.13;0.13;;;1.10;99.90;;;;;;5023195;28;20560;-85
2022/03/05 01:10:12;;;;;;;1.63;0.87;;;1.10;99.90;;;;;;5025824;28;20217;-85
2022/03/05 01:12:38;;;;;;;0.60;0.43;;;1.10;99.90;;;;;;5022572;28;20209;-84
2022/03/05 01:15:05;;;;;;;1.07;1.00;;;1.10;99.90;;;;;;5026177;28;20216;-84
2022/03/05 01:17:30;;;;;;;1.43;0.83;;;1.10;99.90;;;;;;5027024;28;20198;-84
2022/03/05 01:19:56;;;;;;;0.20;0.20;;;1.10;99.90;;;;;;5021042;28;20217;-84
2022/03/05 01:22:23;;;;;;;0.63;0.53;;;1.00;99.90;;;;;;5023725;28;20184;-84
2022/03/05 01:24:48;;;;;;;3.30;1.33;;;1.00;99.90;;;;;;5027840;28;20228;-84
2022/03/05 01:27:14;;;;;;;0.10;0.10;;;1.00;99.90;;;;;;5026592;28;20186;-84
2022/03/05 01:29:39;;;;;;;1.07;1.03;;;1.10;99.90;;;;;;5028736;28;20214;-85
2022/03/05 01:32:06;;;;;;;0.43;0.43;;;1.10;99.90;;;;;;5027414;28;20191;-84
2022/03/05 01:34:31;;;;;;;2.50;1.30;;;1.10;99.90;;;;;;5026094;28;20185;-84
2022/03/05 01:36:57;;;;;;;0.67;0.47;;;1.10;99.90;;;;;;5027107;28;21247;-84
2022/03/05 01:39:26;;;;;;;0.20;0.20;;;1.10;99.90;;;;;;5024534;28;20264;-83
2022/03/05 01:41:55;;;;;;;0.87;0.70;;;1.10;99.90;;;;;;5023730;28;20263;-85
2022/03/05 01:44:23;;;;;;;1.27;1.17;;;1.10;99.90;;;;;;5023293;28;20552;-85
2022/03/05 01:46:49;;;;;;;0.60;0.60;;;1.00;99.90;;;;;;5026620;28;20728;-84
2022/03/05 01:49:15;;;;;;;0.47;0.47;;;1.10;99.90;;;;;;5026958;28;20197;-84
2022/03/05 01:51:41;;;;;;;0.10;0.10;;;1.10;99.90;;;;;;5027751;28;20195;-86
2022/03/05 01:54:08;;;;;;;1.23;1.10;;;1.00;99.90;;;;;;5028560;28;20185;-84
2022/03/05 01:56:36;;;;;;;0.87;0.73;;;1.00;99.90;;;;;;5025917;28;20178;-84
2022/03/05 01:59:02;;;;;;;0.30;0.30;;;1.00;99.90;;;;;;5025045;28;20785;-84
2022/03/05 02:01:29;;;;;;;0.60;0.60;;;1.00;99.90;;;;;;5027425;28;20205;-84
2022/03/05 02:03:55;;;;;;;0.20;0.20;;;1.00;99.90;;;;;;5027596;28;20659;-85
2022/03/05 02:06:21;;;;;;;0.87;0.73;;;0.90;99.90;;;;;;5022188;28;20213;-85
2022/03/05 02:08:47;;;;;;;1.17;1.07;;;0.90;99.90;;;;;;5027112;28;20581;-85
2022/03/05 02:11:14;;;;;;;0.30;0.30;;;0.80;99.90;;;;;;5026264;28;20190;-85
2022/03/05 02:13:40;;;;;;;0.60;0.60;;;0.80;99.90;;;;;;5025019;28;20191;-86
2022/03/05 02:16:06;;;;;;;1.70;1.20;;;0.80;99.90;;;;;;5023968;28;20280;-84
2022/03/05 02:18:32;;;;;;;0.77;0.77;;;0.80;99.90;;;;;;5025515;28;20319;-84
2022/03/05 02:20:58;;;;;;;1.03;1.03;;;0.80;99.90;;;;;;5025788;28;20206;-86
2022/03/05 02:23:24;;;;;;;0.63;0.20;;;0.70;99.90;;;;;;5025370;28;20186;-84
2022/03/05 02:25:58;;;;;;;0.33;0.33;;;0.70;99.90;;;;;;5024163;28;20187;-84
2022/03/05 02:28:25;;;;;;;1.07;0.80;;;0.70;99.90;;;;;;5026895;28;20656;-84
2022/03/05 02:30:53;;;;;;;0.47;0.47;;;0.70;99.90;;;;;;5025471;28;20576;-86
2022/03/05 02:33:19;;;;;;;0.57;0.23;;;0.70;99.90;;;;;;5026635;28;20195;-83
2022/03/05 02:35:45;;;;;;;0.57;0.57;;;0.70;99.90;;;;;;5023414;28;20180;-84
2022/03/05 02:38:17;;;;;;;4.17;0.90;;;0.60;99.90;;;;;;5025912;28;20202;-86
2022/03/05 02:40:44;;;;;;;2.87;2.40;;;0.60;99.90;;;;;;5024666;28;20387;-85
2022/03/05 02:43:10;;;;;;;0.60;0.60;;;0.50;99.90;;;;;;5025370;28;20666;-84
2022/03/05 02:45:36;;;;;;;0.67;0.67;;;0.60;99.90;;;;;;5025719;28;20186;-85
2022/03/05 02:48:04;;;;;;;0.70;0.70;;;0.50;99.90;;;;;;5024709;28;20182;-84
2022/03/05 02:50:30;;;;;;;0.87;0.77;;;0.50;99.90;;;;;;5025261;28;20204;-85
2022/03/05 02:52:56;;;;;;;0.93;0.73;;;0.40;99.90;;;;;;5025667;28;20206;-84
2022/03/05 02:55:21;;;;;;;0.17;0.17;;;0.40;99.90;;;;;;5021286;28;20258;-84
2022/03/05 02:57:47;;;;;;;0.47;0.47;;;0.40;99.90;;;;;;5023770;28;20185;-86
2022/03/05 03:00:13;;;;;;;0.40;0.40;;;0.40;99.90;;;;;;5023935;28;20238;-84
2022/03/05 03:02:39;;;;;;;0.20;0.20;;;0.50;99.90;;;;;;5025085;28;20645;-84
2022/03/05 03:05:05;;;;;;;0.50;0.50;;;0.40;99.90;;;;;;5023726;28;20196;-85
2022/03/05 03:07:31;;;;;;;0.10;0.10;;;0.40;99.90;;;;;;5023243;28;20196;-85
2022/03/05 03:09:58;;;;;;;0.67;0.67;;;0.40;99.90;;;;;;5023373;28;20200;-86
2022/03/05 03:12:27;;;;;;;0.43;0.43;;;0.40;99.90;;;;;;5026270;28;20181;-84
2022/03/05 03:14:54;;;;;;;0.57;0.57;;;0.40;99.90;;;;;;5026135;28;20238;-85
2022/03/05 03:17:20;;;;;;;0.80;0.70;;;0.40;99.90;;;;;;5025577;28;20181;-84
2022/03/05 03:19:45;;;;;;;3.07;2.40;;;0.40;99.90;;;;;;5022692;28;20215;-85
2022/03/05 03:22:11;;;;;;;9.97;1.10;;;0.40;99.90;;;;;;5018094;28;20181;-84
2022/03/05 03:24:38;;;;;;;0.87;0.80;;;0.40;99.90;;;;;;5022605;28;20185;-85
2022/03/05 03:27:04;;;;;;;0.83;0.77;;;0.40;99.90;;;;;;5040252;28;20184;-85
2022/03/05 03:29:30;;;;;;;1.10;0.67;;;0.40;99.90;;;;;;5020627;28;20204;-84
2022/03/05 03:31:55;;;;;;;2.00;0.93;;;0.30;99.90;;;;;;5019963;28;20270;-86
2022/03/05 03:34:21;;;;;;;3.53;1.43;;;0.30;99.90;;;;;;5025241;28;20184;-83
2022/03/05 03:36:46;;;;;;;2.00;0.90;;;0.40;99.90;;;;;;5021517;28;20290;-83
2022/03/05 03:39:13;;;;;;;1.47;1.40;;;0.30;99.90;;;;;;5025623;28;20207;-86
2022/03/05 03:41:39;;;;;;;0.93;0.93;;;0.30;99.90;;;;;;5024010;28;20301;-84
2022/03/05 03:44:05;;;;;;;0.40;0.40;;;0.30;99.90;;;;;;5025186;28;20269;-84
2022/03/05 03:46:30;;;;;;;0.53;0.40;;;0.20;99.90;;;;;;5025918;28;20186;-84
2022/03/05 03:48:56;;;;;;;1.67;0.80;;;0.20;99.90;;;;;;5025352;28;20202;-84
2022/03/05 03:51:21;;;;;;;2.03;0.90;;;0.20;99.90;;;;;;5024911;28;20182;-86
2022/03/05 03:53:47;;;;;;;0.20;0.20;;;0.20;99.90;;;;;;5025357;28;20186;-84
2022/03/05 03:56:13;;;;;;;1.23;1.13;;;0.20;99.90;;;;;;5023523;28;20195;-86
2022/03/05 03:58:39;;;;;;;0.60;0.60;;;0.20;99.90;;;;;;5024390;28;20191;-84
2022/03/05 04:01:04;;;;;;;1.40;0.67;;;0.20;99.90;;;;;;5020092;28;20483;-84
2022/03/05 04:03:30;;;;;;;0.63;0.63;;;0.20;99.90;;;;;;5020873;28;20189;-84
2022/03/05 04:05:55;;;;;;;0.93;0.77;;;0.20;99.90;;;;;;5019398;28;20261;-84
2022/03/05 04:11:07;;;;;;;1.50;0.87;;;0.20;99.90;;;;;;5025200;28;20194;-86
2022/03/05 04:13:33;;;;;;;0.50;0.50;;;0.20;99.90;;;;;;5022189;28;20194;-85
2022/03/05 04:15:58;;;;;;;0.67;0.43;;;0.20;99.90;;;;;;5022613;28;20188;-84
2022/03/05 04:18:24;;;;;;;0.77;0.63;;;0.30;99.90;;;;;;5025753;28;20237;-84
2022/03/05 04:20:50;;;;;;;0.40;0.20;;;0.30;99.90;;;;;;5016824;28;20231;-84
2022/03/05 04:23:15;;;;;;;1.27;0.73;;;0.20;99.90;;;;;;5017590;28;20225;-84
2022/03/05 04:25:41;;;;;;;2.47;1.00;;;0.20;99.90;;;;;;5020584;28;20184;-84
2022/03/05 04:28:06;;;;;;;1.37;1.07;;;0.20;99.90;;;;;;5025710;28;20180;-84
2022/03/05 04:30:32;;;;;;;0.93;0.80;;;0.20;99.90;;;;;;5020759;28;20221;-84
2022/03/05 04:32:58;;;;;;;0.50;0.30;;;0.10;99.90;;;;;;5020950;28;20524;-85
2022/03/05 04:35:23;;;;;;;3.00;1.53;;;0.10;99.90;;;;;;5023477;28;20187;-85
2022/03/05 04:37:51;;;;;;;0.47;0.47;;;0.10;99.90;;;;;;5022594;28;20186;-84
2022/03/05 04:40:19;;;;;;;0.50;0.50;;;0.10;99.90;;;;;;5025178;28;20856;-84
2022/03/05 04:42:45;;;;;;;1.07;0.87;;;0.00;99.90;;;;;;5024621;28;20207;-84
2022/03/05 04:45:11;;;;;;;0.30;0.30;;;0.00;99.90;;;;;;5021543;28;20673;-85
2022/03/05 04:47:38;;;;;;;0.60;0.60;;;0.00;99.90;;;;;;5026001;28;20221;-83
2022/03/05 04:50:05;;;;;;;3.60;0.87;;;0.00;99.90;;;;;;5022992;28;20212;-83
2022/03/05 04:52:30;;;;;;;0.83;0.83;;;-0.10;99.90;;;;;;5026990;28;20285;-84
2022/03/05 04:54:57;;;;;;;3.70;0.70;;;-0.10;99.90;;;;;;5030613;28;20179;-84
2022/03/05 04:57:24;;;;;;;0.20;0.20;;;0.00;99.90;;;;;;5027523;28;20179;-85
2022/03/05 04:59:50;;;;;;;3.20;0.93;;;0.00;99.90;;;;;;5025866;28;20738;-85
2022/03/05 05:02:16;;;;;;;4.20;1.37;;;0.00;99.90;;;;;;5030539;28;20178;-85
2022/03/05 05:04:42;;;;;;;1.13;1.13;;;0.00;99.90;;;;;;5025189;28;20209;-84
2022/03/05 05:07:07;;;;;;;0.67;0.67;;;0.00;99.90;;;;;;5028117;28;20198;-84
2022/03/05 05:09:33;;;;;;;0.23;0.23;;;0.00;99.90;;;;;;5026960;28;20212;-84
2022/03/05 05:11:59;;;;;;;0.70;0.70;;;0.10;99.90;;;;;;5029036;28;20510;-84
2022/03/05 05:14:24;;;;;;;5.17;1.70;;;0.20;99.90;;;;;;5026045;28;20182;-85
2022/03/05 05:16:50;;;;;;;1.50;0.40;;;0.20;99.90;;;;;;5026567;28;20184;-84
2022/03/05 05:19:24;;;;;;;1.20;1.10;;;0.20;99.90;;;;;;5027849;28;20687;-86
2022/03/05 05:21:51;;;;;;;0.40;0.40;;;0.10;99.90;;;;;;5030278;28;20194;-84
2022/03/05 05:24:18;;;;;;;0.50;0.50;;;0.10;99.90;;;;;;5028450;28;20179;-84
2022/03/05 05:26:43;;;;;;;10.60;1.23;;;0.10;99.90;;;;;;5022771;28;20229;-84
2022/03/05 05:29:09;;;;;;;0.87;0.67;;;0.10;99.90;;;;;;5029648;28;20213;-84
2022/03/05 05:31:35;;;;;;;0.77;0.47;;;0.00;99.90;;;;;;5030177;28;20174;-84
2022/03/05 05:34:01;;;;;;;0.67;0.53;;;0.00;99.90;;;;;;5023731;28;20736;-83
2022/03/05 05:36:27;;;;;;;0.40;0.40;;;-0.10;99.90;;;;;;5028144;28;20703;-85
2022/03/05 05:38:53;;;;;;;1.57;1.47;;;-0.10;99.90;;;;;;5021735;28;20204;-85
2022/03/05 05:41:19;;;;;;;0.57;0.50;;;-0.10;99.90;;;;;;5021618;28;20263;-85
2022/03/05 05:43:45;;;;;;;0.40;0.40;;;-0.10;99.90;;;;;;5022839;28;20240;-84
2022/03/05 05:46:12;;;;;;;3.50;1.20;;;-0.10;99.90;;;;;;5025916;28;20191;-85
2022/03/05 05:48:37;;;;;;;0.60;0.60;;;-0.10;99.90;;;;;;5027492;28;20180;-85
2022/03/05 05:51:04;;;;;;;1.80;0.70;;;-0.20;99.90;;;;;;5020341;28;20203;-85
2022/03/05 05:53:30;;;;;;;0.67;0.67;;;-0.20;99.90;;;;;;5027286;28;20914;-84
2022/03/05 05:55:55;;;;;;;2.37;0.97;;;-0.20;99.90;;;;;;5021979;28;20198;-85
2022/03/05 05:58:22;;;;;;;2.97;1.33;;;-0.20;99.90;;;;;;5024511;28;20187;-84
2022/03/05 06:00:48;;;;;;;0.53;0.53;;;-0.20;99.90;;;;;;5021470;28;20221;-84
2022/03/05 06:03:15;;;;;;;0.47;0.47;;;-0.20;99.90;;;;;;5024212;28;20286;-84
2022/03/05 06:05:40;;;;;;;1.83;0.90;;;-0.10;99.90;;;;;;5021381;28;20728;-84
2022/03/05 06:08:06;;;;;;;1.67;0.93;;;-0.20;99.90;;;;;;5025555;28;20195;-85
2022/03/05 06:10:31;;;;;;;1.30;0.80;;;-0.10;99.90;;;;;;5023477;28;21002;-84
2022/03/05 06:12:57;;;;;;;1.80;1.03;;;-0.10;99.90;;;;;;5023508;28;20661;-84
2022/03/05 06:15:23;;;;;;;0.60;0.60;;;-0.10;99.90;;;;;;5025131;28;20234;-84
2022/03/05 06:17:48;;;;;;;1.10;1.00;;;-0.10;99.90;;;;;;5022004;28;20194;-84
2022/03/05 06:20:14;;;;;;;1.00;0.90;;;-0.10;99.90;;;;;;5023937;28;20734;-84
2022/03/05 06:22:39;;;;;;;0.83;0.83;;;-0.10;99.90;;;;;;5019619;28;20187;-84
2022/03/05 06:25:06;;;;;;;1.20;1.10;;;0.00;99.90;;;;;;5022167;28;20231;-84
2022/03/05 06:27:31;;;;;;;1.27;0.97;;;0.00;99.90;;;;;;5024229;28;20751;-84
2022/03/05 06:29:58;;;;;;;1.53;1.43;;;0.10;99.90;;;;;;5024749;28;20300;-85
2022/03/05 06:32:23;;;;;;;0.70;0.63;;;0.00;99.90;;;;;;5022482;28;20179;-84
2022/03/05 06:34:49;;;;;;;1.17;1.03;;;0.10;99.90;;;;;;5022695;28;20289;-84
2022/03/05 06:37:15;;;;;;;0.53;0.53;;;0.10;99.90;;;;;;5023685;28;20190;-84
2022/03/05 06:39:40;;;;;;;6.83;1.50;;;0.20;99.90;;;;;;5025728;28;20217;-84
2022/03/05 06:42:07;;;;;;;0.30;0.30;;;0.20;99.90;;;;;;5019268;28;20192;-86
2022/03/05 06:44:35;;;;;;;0.30;0.30;;;0.30;99.90;;;;;;5021975;28;20187;-85
2022/03/05 06:47:01;;;;;;;0.90;0.80;;;0.30;99.90;;;;;;5027517;28;20171;-84
2022/03/05 06:49:27;;;;;;;1.67;1.57;;;0.40;99.90;;;;;;5028844;28;20582;-85
2022/03/05 06:51:53;;;;;;;0.57;0.47;;;0.40;99.90;;;;;;5029092;28;20185;-84
2022/03/05 06:54:19;;;;;;;1.43;0.60;;;0.50;99.90;;;;;;5022263;28;20233;-84
2022/03/05 06:56:45;;;;;;;0.60;0.60;;;0.60;99.90;;;;;;5024624;28;20272;-86
2022/03/05 06:59:12;;;;;;;2.73;1.83;;;0.70;99.90;;;;;;5020159;28;20293;-83
2022/03/05 07:01:38;;;;;;;5.23;2.00;;;0.80;99.90;;;;;;5024939;28;20206;-84
2022/03/05 07:04:03;;;;;;;1.23;0.73;;;0.90;99.90;;;;;;5019415;28;20204;-82
2022/03/05 07:06:30;;;;;;;1.13;0.77;;;1.00;99.90;;;;;;5023409;28;20564;-83
2022/03/05 07:08:56;;;;;;;1.80;1.50;;;1.10;99.90;;;;;;5020102;28;20205;-82
2022/03/05 07:11:21;;;;;;;0.83;0.67;;;1.20;99.90;;;;;;5019368;28;20212;-82
2022/03/05 07:13:47;;;;;;;0.33;0.30;;;1.30;99.90;;;;;;5020347;28;20186;-85
2022/03/05 07:16:12;;;;;;;1.40;1.27;;;1.40;99.90;;;;;;5020736;28;20184;-84
2022/03/05 07:18:39;;;;;;;4.00;1.27;;;1.50;99.90;;;;;;5016478;28;20272;-86
2022/03/05 07:21:05;;;;;;;0.27;0.27;;;1.50;99.90;;;;;;5020786;28;20332;-86
2022/03/05 07:23:32;;;;;;;1.47;0.37;;;1.60;99.90;;;;;;5021972;28;20233;-85
2022/03/05 07:25:58;;;;;;;4.00;1.07;;;1.70;99.90;;;;;;5020693;28;20190;-84
2022/03/05 07:28:23;;;;;;;1.20;0.47;;;1.80;99.90;;;;;;5025215;28;20194;-86
2022/03/05 07:30:49;;;;;;;0.33;0.33;;;2.00;99.90;;;;;;5024006;28;21769;-85
2022/03/05 07:33:15;;;;;;;1.40;1.30;;;2.20;99.90;;;;;;5019619;28;20867;-85
2022/03/05 07:35:41;;;;;;;3.70;1.43;;;2.20;99.90;;;;;;5020419;28;20195;-86
2022/03/05 07:38:07;;;;;;;2.27;1.37;;;2.20;99.90;;;;;;5024167;28;20200;-86
2022/03/05 07:40:33;;;;;;;0.87;0.87;;;2.20;99.90;;;;;;5026143;28;20208;-86
2022/03/05 07:42:58;;;;;;;0.40;0.40;;;2.30;99.90;;;;;;5023111;28;20805;-86
2022/03/05 07:45:24;;;;;;;0.93;0.67;;;2.30;99.90;;;;;;5022505;28;20684;-86
2022/03/05 07:47:50;;;;;;;3.10;1.80;;;2.40;99.90;;;;;;5023707;28;20190;-85
2022/03/05 07:50:15;;;;;;;2.00;0.47;;;2.20;99.90;;;;;;5020293;28;20231;-86
2022/03/05 07:52:41;;;;;;;5.00;4.20;;;2.40;99.90;;;;;;5024347;28;20247;-86
2022/03/05 07:55:08;;;;;;;0.73;0.73;;;2.40;99.90;;;;;;5021736;28;20221;-85
2022/03/05 07:57:34;;;;;;;8.83;1.30;;;2.50;99.90;;;;;;5023743;28;21052;-86
2022/03/05 08:00:00;;;;;;;0.77;0.77;;;2.70;99.90;;;;;;5023785;28;20214;-85
2022/03/05 08:02:26;;;;;;;1.70;1.13;;;2.60;99.90;;;;;;5021631;28;20191;-84
2022/03/05 08:04:51;;;;;;;1.67;1.67;;;2.90;99.90;;;;;;5023237;28;20311;-86
2022/03/05 08:07:17;;;;;;;0.97;0.97;;;2.80;99.90;;;;;;5022560;28;20193;-85
2022/03/05 08:09:47;;;;;;;2.10;1.50;;;2.60;99.90;;;;;;5022009;28;20264;-86
2022/03/05 08:12:12;;;;;;;1.60;1.50;;;2.90;99.90;;;;;;5017728;28;20179;-86
2022/03/05 08:14:38;;;;;;;0.30;0.30;;;2.90;99.90;;;;;;5019933;28;20185;-85
2022/03/05 08:17:04;;;;;;;0.50;0.43;;;3.20;99.90;;;;;;5017683;28;20187;-86
2022/03/05 08:19:30;;;;;;;2.30;1.30;;;3.10;99.90;;;;;;5019069;28;20204;-86
2022/03/05 08:21:55;;;;;;;0.93;0.93;;;3.40;99.90;;;;;;5020007;28;20189;-86
2022/03/05 08:24:21;;;;;;;1.73;1.63;;;3.50;99.90;;;;;;5020330;28;20200;-86
2022/03/05 08:26:47;;;;;;;2.27;0.80;;;3.70;99.90;;;;;;5029116;28;20182;-85
2022/03/05 08:29:12;;;;;;;0.77;0.77;;;3.40;99.90;;;;;;5029545;28;20230;-86
2022/03/05 08:31:38;;;;;;;2.67;1.90;;;3.30;99.90;;;;;;5022557;28;20590;-85
2022/03/05 08:34:03;;;;;;;3.60;1.40;;;3.50;99.90;;;;;;5022495;28;20195;-86
2022/03/05 08:36:30;;;;;;;2.13;1.37;;;4.00;99.90;;;;;;5025087;28;20188;-84
2022/03/05 08:38:56;;;;;;;1.87;1.70;;;4.20;99.90;;;;;;5027822;28;20241;-82
2022/03/05 08:41:22;;;;;;;2.27;1.33;;;3.90;99.90;;;;;;5026643;28;20356;-82
2022/03/05 08:43:49;;;;;;;2.20;1.33;;;4.00;99.90;;;;;;5025288;28;20178;-81
2022/03/05 08:46:15;;;;;;;0.50;0.50;;;4.20;99.90;;;;;;5028517;28;20185;-83
2022/03/05 08:48:40;;;;;;;0.50;0.40;;;4.50;99.90;;;;;;5026563;28;20191;-82
2022/03/05 08:51:06;;;;;;;1.43;1.37;;;4.70;99.90;;;;;;5028322;28;20187;-82
2022/03/05 08:53:31;;;;;;;3.33;0.73;;;4.80;99.90;;;;;;5025268;28;20246;-81
2022/03/05 08:55:57;;;;;;;0.67;0.67;;;5.10;99.90;;;;;;5022062;28;20193;-81
2022/03/05 08:58:23;;;;;;;1.07;1.07;;;4.50;99.90;;;;;;5026417;28;20189;-80
2022/03/05 09:00:49;;;;;;;0.13;0.13;;;4.30;99.90;;;;;;5044678;28;20214;-84
2022/03/05 09:03:16;;;;;;;0.63;0.63;;;4.70;99.90;;;;;;5027663;28;20666;-84
2022/03/05 09:05:42;;;;;;;0.53;0.53;;;4.80;99.90;;;;;;5026784;28;20198;-84
2022/03/05 09:08:08;;;;;;;0.53;0.53;;;4.80;99.90;;;;;;5028932;28;20237;-83
2022/03/05 09:10:33;;;;;;;0.70;0.70;;;5.30;99.90;;;;;;5027195;28;20205;-84
2022/03/05 09:13:00;;;;;;;1.17;0.80;;;5.80;99.90;;;;;;5027083;28;20707;-84
2022/03/05 09:15:26;;;;;;;1.93;1.33;;;5.40;99.90;;;;;;5028539;28;20908;-84
2022/03/05 09:17:51;;;;;;;0.57;0.57;;;5.50;99.90;;;;;;5043491;28;20220;-83
2022/03/05 09:20:17;;;;;;;5.70;1.17;;;5.30;99.90;;;;;;5023600;28;20253;-84
2022/03/05 09:22:42;;;;;;;1.17;1.03;;;5.20;99.90;;;;;;5023998;28;21311;-82
2022/03/05 09:25:09;;;;;;;1.27;1.03;;;4.80;99.90;;;;;;5025640;28;20358;-82
2022/03/05 09:27:35;;;;;;;3.47;0.97;;;5.40;99.90;;;;;;5023437;28;20177;-82
2022/03/05 09:30:01;;;;;;;6.37;1.00;;;5.10;99.90;;;;;;5023328;28;21158;-82
2022/03/05 09:32:27;;;;;;;1.87;1.20;;;5.10;99.90;;;;;;5027044;28;20178;-83
2022/03/05 09:34:52;;;;;;;2.27;2.17;;;5.50;99.90;;;;;;5022325;28;20241;-82
2022/03/05 09:37:18;;;;;;;1.70;0.97;;;5.20;99.90;;;;;;5043404;28;20673;-83
2022/03/05 09:39:43;;;;;;;0.73;0.47;;;5.30;99.90;;;;;;5024160;28;20206;-83
2022/03/05 09:42:09;;;;;;;1.77;1.60;;;5.40;99.90;;;;;;5022973;28;20285;-83
2022/03/05 09:44:38;;;;;;;1.50;1.13;;;5.50;99.90;;;;;;5022312;28;20270;-81
2022/03/05 09:47:05;;;;;;;0.93;0.83;;;5.70;99.90;;;;;;5023753;28;20285;-83
2022/03/05 09:49:30;;;;;;;0.23;0.23;;;6.10;99.90;;;;;;5024825;28;20293;-82
2022/03/05 09:51:59;;;;;;;2.47;1.47;;;6.40;99.90;;;;;;5020146;28;20624;-84
2022/03/05 09:54:24;;;;;;;1.20;1.10;;;6.50;99.90;;;;;;5024794;28;20210;-83
2022/03/05 09:56:50;;;;;;;0.77;0.50;;;6.50;99.90;;;;;;5022788;28;20260;-84
2022/03/05 09:59:15;;;;;;;1.10;0.97;;;5.70;99.90;;;;;;5026024;28;20215;-83
2022/03/05 10:01:42;;;;;;;1.47;1.37;;;5.40;99.90;;;;;;5027766;28;20230;-83
2022/03/05 10:04:19;;;;;;;1.93;1.20;;;5.50;99.90;;;;;;5025125;28;20209;-83
2022/03/05 10:06:45;;;;;;;0.77;0.73;;;6.10;99.90;;;;;;5029835;28;20189;-83
2022/03/05 10:09:21;;;;;;;3.17;2.17;;;6.70;99.90;;;;;;5027296;28;20207;-83
2022/03/05 10:11:47;;;;;;;1.17;1.13;;;6.80;99.90;;;;;;5029588;28;20294;-84
2022/03/05 10:14:17;;;;;;;2.37;1.23;;;7.10;99.90;;;;;;5030124;28;20233;-83
2022/03/05 10:16:43;;;;;;;0.63;0.63;;;7.20;99.90;;;;;;5030457;28;20194;-82
2022/03/05 10:19:17;;;;;;;0.93;0.70;;;7.60;99.90;;;;;;5028204;28;20211;-82
2022/03/05 10:22:05;;;;;;;1.53;0.80;;;7.50;99.90;;;;;;5029894;28;20276;-81
2022/03/05 10:24:36;;;;;;;1.10;0.90;;;7.60;99.90;;;;;;5029371;28;20193;-82
2022/03/05 10:27:03;;;;;;;2.20;0.93;;;7.90;99.90;;;;;;5029122;28;20186;-81
2022/03/05 10:29:35;;;;;;;2.53;0.60;;;8.10;99.90;;;;;;5026232;28;20203;-81
2022/03/05 10:32:04;;;;;;;1.87;0.90;;;8.40;99.90;;;;;;5029253;28;20199;-82
2022/03/05 10:34:44;;;;;;;1.13;0.53;;;8.60;99.90;;;;;;5020226;28;20218;-82
2022/03/05 10:37:10;;;;;;;0.93;0.57;;;8.20;99.90;;;;;;5023673;28;20195;-81
2022/03/05 10:39:36;;;;;;;0.57;0.50;;;8.10;99.90;;;;;;5023709;28;20215;-81
2022/03/05 10:42:03;;;;;;;0.47;0.47;;;8.10;99.90;;;;;;5020706;28;20273;-85
2022/03/05 10:44:28;;;;;;;0.70;0.70;;;8.40;99.90;;;;;;5023533;28;20218;-85
2022/03/05 10:46:55;;;;;;;0.57;0.57;;;8.60;99.90;;;;;;5027926;28;20212;-84
2022/03/05 10:49:23;;;;;;;2.43;0.93;;;8.80;99.90;;;;;;5023727;28;20803;-85
2022/03/05 10:51:51;;;;;;;0.93;0.87;;;7.90;99.90;;;;;;5023809;28;20225;-82
2022/03/05 10:54:37;;;;;;;1.47;0.97;;;8.40;99.90;;;;;;5026885;28;20203;-80
2022/03/05 10:57:07;;;;;;;2.40;0.83;;;8.30;99.90;;;;;;5025902;28;20209;-80
2022/03/05 10:59:39;;;;;;;0.63;0.63;;;7.90;99.90;;;;;;5028518;28;20766;-81
2022/03/05 11:02:06;;;;;;;1.20;0.73;;;8.50;99.90;;;;;;5024539;28;20279;-81
2022/03/05 11:04:35;;;;;;;1.90;0.97;;;8.40;99.90;;;;;;5028731;28;20188;-81
2022/03/05 11:07:01;;;;;;;0.70;0.70;;;7.90;99.90;;;;;;5028247;28;20303;-81
2022/03/05 11:09:29;;;;;;;3.83;0.93;;;8.00;99.90;;;;;;5027596;28;20710;-81
2022/03/05 11:11:55;;;;;;;1.10;0.57;;;8.60;99.90;;;;;;5026455;28;20183;-81
2022/03/05 11:14:21;;;;;;;1.83;1.37;;;8.80;99.90;;;;;;5028866;28;20193;-81
2022/03/05 11:16:46;;;;;;;1.23;0.83;;;8.60;99.90;;;;;;5027337;28;20188;-81
2022/03/05 11:19:14;;;;;;;0.90;0.67;;;9.00;99.90;;;;;;5028248;28;20565;-81
2022/03/05 11:21:39;;;;;;;1.00;0.50;;;9.30;99.90;;;;;;5028627;28;20201;-81
2022/03/05 11:24:06;;;;;;;0.70;0.70;;;9.50;99.90;;;;;;5029074;28;20255;-81
2022/03/05 11:26:32;;;;;;;2.27;1.10;;;9.60;99.90;;;;;;5027315;28;20540;-81
2022/03/05 11:28:58;;;;;;;0.83;0.80;;;9.70;99.90;;;;;;5019780;28;20212;-81
2022/03/05 11:31:30;;;;;;;0.23;0.23;;;9.60;99.90;;;;;;5026913;28;20197;-81
2022/03/05 11:34:12;;;;;;;1.20;1.10;;;9.70;99.90;;;;;;5027180;28;20264;-81
2022/03/05 11:36:39;;;;;;;4.40;1.53;;;9.70;99.90;;;;;;5026528;28;20178;-81
2022/03/05 11:39:22;;;;;;;0.77;0.30;;;9.70;99.90;;;;;;5027017;28;20614;-81
2022/03/05 11:42:01;;;;;;;3.00;1.47;;;10.10;99.90;;;;;;5026143;28;20251;-80
2022/03/05 11:44:30;;;;;;;0.97;0.93;;;10.20;99.90;;;;;;5025782;28;20172;-81
2022/03/05 11:47:27;;;;;;;3.10;1.30;;;10.10;99.90;;;;;;5027184;28;20177;-79
2022/03/05 11:49:58;;;;;;;0.40;0.40;;;9.70;99.90;;;;;;5020619;28;20567;-79
2022/03/05 11:52:56;;;;;;;1.13;0.83;;;9.30;99.90;;;;;;5026350;28;20538;-81
2022/03/05 11:55:24;;;;;;;5.63;1.50;;;9.70;99.90;;;;;;5018274;28;20191;-81
2022/03/05 11:57:52;;;;;;;1.57;1.00;;;9.90;99.90;;;;;;5023090;28;20185;-79
2022/03/05 12:00:29;;;;;;;1.30;0.90;;;9.50;99.90;;;;;;5019807;28;20239;-79
2022/03/05 12:02:56;;;;;;;1.37;0.80;;;9.90;99.90;;;;;;5026399;28;20189;-81
2022/03/05 12:05:44;;;;;;;0.83;0.30;;;10.10;99.90;;;;;;5027570;28;20226;-81
2022/03/05 12:08:11;;;;;;;0.53;0.53;;;10.30;99.90;;;;;;5026540;28;20170;-79
2022/03/05 12:10:39;;;;;;;0.43;0.43;;;10.50;99.90;;;;;;5021407;28;20216;-79
2022/03/05 12:13:10;;;;;;;4.80;1.17;;;9.50;99.90;;;;;;5017784;28;20247;-80
2022/03/05 12:15:39;;;;;;;0.83;0.83;;;9.60;99.90;;;;;;5023911;28;20190;-79
2022/03/05 12:18:08;;;;;;;0.90;0.90;;;9.90;99.90;;;;;;5022872;28;20292;-79
2022/03/05 12:20:36;;;;;;;1.40;1.30;;;9.70;99.90;;;;;;5022379;28;20304;-79
2022/03/05 12:23:29;;;;;;;1.17;0.63;;;9.00;99.90;;;;;;5023072;28;20190;-79
2022/03/05 12:26:01;;;;;;;0.50;0.50;;;9.10;99.90;;;;;;5019491;28;20221;-79
2022/03/05 12:28:39;;;;;;;1.63;1.00;;;9.30;99.90;;;;;;5022333;28;20844;-79
2022/03/05 12:31:05;;;;;;;1.17;0.80;;;9.20;99.90;;;;;;5020976;28;20224;-79
2022/03/05 12:33:32;;;;;;;1.23;1.07;;;8.90;99.90;;;;;;5022908;28;20256;-81
2022/03/05 12:35:58;;;;;;;0.90;0.90;;;8.50;99.90;;;;;;5021438;28;20192;-81
2022/03/05 12:38:24;;;;;;;1.60;1.47;;;9.00;99.90;;;;;;5020357;28;20198;-81
2022/03/05 12:40:50;;;;;;;1.63;0.63;;;9.50;99.90;;;;;;5022197;28;20200;-81
2022/03/05 12:43:15;;;;;;;0.50;0.50;;;9.70;99.90;;;;;;5020115;28;20197;-79
2022/03/05 12:45:44;;;;;;;0.73;0.67;;;9.10;99.90;;;;;;5015911;28;20183;-79
2022/03/05 12:48:15;;;;;;;2.10;1.10;;;9.30;99.90;;;;;;5021427;28;20186;-79
2022/03/05 12:50:43;;;;;;;1.07;0.97;;;9.50;99.90;;;;;;5020897;28;20283;-79
2022/03/05 12:53:12;;;;;;;0.80;0.73;;;9.50;99.90;;;;;;5021976;28;20194;-79
2022/03/05 12:55:56;;;;;;;0.70;0.70;;;9.20;99.90;;;;;;5016614;28;20183;-79
2022/03/05 12:58:22;;;;;;;0.97;0.40;;;9.30;99.90;;;;;;5023280;28;20185;-79